sensor_id;sensor_type;location;lat;lon;timestamp;temperature;humidity
24682;DHT22;12802;53.390;-2.328;2023-06-24T00:02:11;19.50;99.90
24682;DHT22;12802;53.390;-2.328;2023-06-24T00:04:37;19.50;99.90
24682;DHT22;12802;53.390;-2.328;2023-06-24T00:07:03;19.50;99.90
24682;DHT22;12802;53.390;-2.328;2023-06-24T00:09:29;19.50;99.90
24682;DHT22;12802;53.390;-2.328;2023-06-24T00:11:58;19.40;99.90
24682;DHT22;12802;53.390;-2.328;2023-06-24T00:14:25;19.40;99.90
24682;DHT22;12802;53.390;-2.328;2023-06-24T00:16:52;19.40;99.90
24682;DHT22;12802;53.390;-2.328;2023-06-24T00:19:23;19.40;99.90
24682;DHT22;12802;53.390;-2.328;2023-06-24T00:21:49;19.40;99.90
24682;DHT22;12802;53.390;-2.328;2023-06-24T00:24:19;19.40;99.90
24682;DHT22;12802;53.390;-2.328;2023-06-24T00:26:48;19.40;99.90
24682;DHT22;12802;53.390;-2.328;2023-06-24T00:29:14;19.40;99.90
24682;DHT22;12802;53.390;-2.328;2023-06-24T00:31:41;19.40;99.90
24682;DHT22;12802;53.390;-2.328;2023-06-24T00:34:07;19.40;99.90
24682;DHT22;12802;53.390;-2.328;2023-06-24T00:36:33;19.40;99.90
24682;DHT22;12802;53.390;-2.328;2023-06-24T00:39:01;19.40;99.90
24682;DHT22;12802;53.390;-2.328;2023-06-24T00:41:30;19.30;99.90
24682;DHT22;12802;53.390;-2.328;2023-06-24T00:43:56;19.30;99.90
24682;DHT22;12802;53.390;-2.328;2023-06-24T00:46:27;19.30;99.90
24682;DHT22;12802;53.390;-2.328;2023-06-24T00:48:57;19.30;99.90
24682;DHT22;12802;53.390;-2.328;2023-06-24T00:51:25;19.30;99.90
24682;DHT22;12802;53.390;-2.328;2023-06-24T00:53:56;19.30;99.90
24682;DHT22;12802;53.390;-2.328;2023-06-24T00:56:33;19.30;99.90
24682;DHT22;12802;53.390;-2.328;2023-06-24T00:59:00;19.20;99.90
24682;DHT22;12802;53.390;-2.328;2023-06-24T01:01:32;19.20;99.90
24682;DHT22;12802;53.390;-2.328;2023-06-24T01:04:00;19.30;99.90
24682;DHT22;12802;53.390;-2.328;2023-06-24T01:06:27;19.20;99.90
24682;DHT22;12802;53.390;-2.328;2023-06-24T01:08:59;19.10;99.90
24682;DHT22;12802;53.390;-2.328;2023-06-24T01:11:32;19.10;99.90
24682;DHT22;12802;53.390;-2.328;2023-06-24T01:13:59;19.10;99.90
24682;DHT22;12802;53.390;-2.328;2023-06-24T01:17:07;19.10;99.90
24682;DHT22;12802;53.390;-2.328;2023-06-24T01:20:04;19.10;99.90
24682;DHT22;12802;53.390;-2.328;2023-06-24T01:28:34;19.10;99.90
24682;DHT22;12802;53.390;-2.328;2023-06-24T01:34:22;19.00;99.90
24682;DHT22;12802;53.390;-2.328;2023-06-24T01:39:31;19.00;99.90
24682;DHT22;12802;53.390;-2.328;2023-06-24T01:42:03;19.00;99.90
24682;DHT22;12802;53.390;-2.328;2023-06-24T01:44:33;19.00;99.90
24682;DHT22;12802;53.390;-2.328;2023-06-24T01:47:00;19.00;99.90
24682;DHT22;12802;53.390;-2.328;2023-06-24T01:49:28;19.00;99.90
24682;DHT22;12802;53.390;-2.328;2023-06-24T01:51:58;19.00;99.90
24682;DHT22;12802;53.390;-2.328;2023-06-24T01:54:28;19.00;99.90
24682;DHT22;12802;53.390;-2.328;2023-06-24T01:56:55;19.00;99.90
24682;DHT22;12802;53.390;-2.328;2023-06-24T01:59:23;19.00;99.90
24682;DHT22;12802;53.390;-2.328;2023-06-24T02:01:50;19.00;99.90
24682;DHT22;12802;53.390;-2.328;2023-06-24T02:04:18;19.00;99.90
24682;DHT22;12802;53.390;-2.328;2023-06-24T02:06:44;19.00;99.90
24682;DHT22;12802;53.390;-2.328;2023-06-24T02:09:11;19.10;99.90
24682;DHT22;12802;53.390;-2.328;2023-06-24T02:11:38;19.10;99.90
24682;DHT22;12802;53.390;-2.328;2023-06-24T02:14:05;19.10;99.90
24682;DHT22;12802;53.390;-2.328;2023-06-24T02:16:33;19.10;99.90
24682;DHT22;12802;53.390;-2.328;2023-06-24T02:19:01;19.10;99.90
24682;DHT22;12802;53.390;-2.328;2023-06-24T02:21:28;19.10;99.90
24682;DHT22;12802;53.390;-2.328;2023-06-24T02:23:54;19.10;99.90
24682;DHT22;12802;53.390;-2.328;2023-06-24T02:26:21;19.10;99.90
24682;DHT22;12802;53.390;-2.328;2023-06-24T02:28:49;19.10;99.90
24682;DHT22;12802;53.390;-2.328;2023-06-24T02:31:16;19.10;99.90
24682;DHT22;12802;53.390;-2.328;2023-06-24T02:33:42;19.00;99.90
24682;DHT22;12802;53.390;-2.328;2023-06-24T02:36:08;19.00;99.90
24682;DHT22;12802;53.390;-2.328;2023-06-24T02:38:35;19.00;99.90
24682;DHT22;12802;53.390;-2.328;2023-06-24T02:41:03;19.00;99.90
24682;DHT22;12802;53.390;-2.328;2023-06-24T02:43:32;18.90;99.90
24682;DHT22;12802;53.390;-2.328;2023-06-24T02:46:01;18.90;99.90
24682;DHT22;12802;53.390;-2.328;2023-06-24T02:48:30;18.90;99.90
24682;DHT22;12802;53.390;-2.328;2023-06-24T02:50:57;18.90;99.90
24682;DHT22;12802;53.390;-2.328;2023-06-24T02:53:24;18.90;99.90
24682;DHT22;12802;53.390;-2.328;2023-06-24T02:55:51;18.80;99.90
24682;DHT22;12802;53.390;-2.328;2023-06-24T02:58:17;18.80;99.90
24682;DHT22;12802;53.390;-2.328;2023-06-24T03:00:54;18.80;99.90
24682;DHT22;12802;53.390;-2.328;2023-06-24T03:03:35;18.80;99.90
24682;DHT22;12802;53.390;-2.328;2023-06-24T03:06:04;18.80;99.90
24682;DHT22;12802;53.390;-2.328;2023-06-24T03:08:31;18.80;99.90
24682;DHT22;12802;53.390;-2.328;2023-06-24T03:10:57;18.80;99.90
24682;DHT22;12802;53.390;-2.328;2023-06-24T03:13:25;18.90;99.90
24682;DHT22;12802;53.390;-2.328;2023-06-24T03:16:12;18.90;99.90
24682;DHT22;12802;53.390;-2.328;2023-06-24T03:18:44;18.90;99.90
24682;DHT22;12802;53.390;-2.328;2023-06-24T03:21:10;18.90;99.90
24682;DHT22;12802;53.390;-2.328;2023-06-24T03:23:37;19.00;99.90
24682;DHT22;12802;53.390;-2.328;2023-06-24T03:26:08;19.00;99.90
24682;DHT22;12802;53.390;-2.328;2023-06-24T03:28:34;19.00;99.90
24682;DHT22;12802;53.390;-2.328;2023-06-24T03:31:09;19.00;99.90
24682;DHT22;12802;53.390;-2.328;2023-06-24T03:33:34;19.00;99.90
24682;DHT22;12802;53.390;-2.328;2023-06-24T03:36:00;19.00;99.90
24682;DHT22;12802;53.390;-2.328;2023-06-24T03:38:30;19.00;99.90
24682;DHT22;12802;53.390;-2.328;2023-06-24T03:40:57;18.90;99.90
24682;DHT22;12802;53.390;-2.328;2023-06-24T03:43:23;18.90;99.90
24682;DHT22;12802;53.390;-2.328;2023-06-24T03:45:49;18.90;99.90
24682;DHT22;12802;53.390;-2.328;2023-06-24T03:48:15;18.90;99.90
24682;DHT22;12802;53.390;-2.328;2023-06-24T03:50:41;18.90;99.90
24682;DHT22;12802;53.390;-2.328;2023-06-24T03:53:07;18.80;99.90
24682;DHT22;12802;53.390;-2.328;2023-06-24T03:55:33;18.80;99.90
24682;DHT22;12802;53.390;-2.328;2023-06-24T03:57:59;18.70;99.90
24682;DHT22;12802;53.390;-2.328;2023-06-24T04:00:26;18.70;99.90
24682;DHT22;12802;53.390;-2.328;2023-06-24T04:02:52;18.60;99.90
24682;DHT22;12802;53.390;-2.328;2023-06-24T04:05:19;18.60;99.90
24682;DHT22;12802;53.390;-2.328;2023-06-24T04:07:45;18.60;99.90
24682;DHT22;12802;53.390;-2.328;2023-06-24T04:10:17;18.60;99.90
24682;DHT22;12802;53.390;-2.328;2023-06-24T04:12:44;18.60;99.90
24682;DHT22;12802;53.390;-2.328;2023-06-24T04:15:11;18.60;99.90
24682;DHT22;12802;53.390;-2.328;2023-06-24T04:17:37;18.60;99.90
24682;DHT22;12802;53.390;-2.328;2023-06-24T04:20:03;18.70;99.90
24682;DHT22;12802;53.390;-2.328;2023-06-24T04:22:32;18.70;99.90
24682;DHT22;12802;53.390;-2.328;2023-06-24T04:24:59;18.70;99.90
24682;DHT22;12802;53.390;-2.328;2023-06-24T04:27:25;18.70;99.90
24682;DHT22;12802;53.390;-2.328;2023-06-24T04:29:50;18.70;99.90
24682;DHT22;12802;53.390;-2.328;2023-06-24T04:32:16;18.70;99.90
24682;DHT22;12802;53.390;-2.328;2023-06-24T04:34:42;18.70;99.90
24682;DHT22;12802;53.390;-2.328;2023-06-24T04:37:08;18.70;99.90
24682;DHT22;12802;53.390;-2.328;2023-06-24T04:39:34;18.70;99.90
24682;DHT22;12802;53.390;-2.328;2023-06-24T04:42:00;18.70;99.90
24682;DHT22;12802;53.390;-2.328;2023-06-24T04:44:26;18.70;99.90
24682;DHT22;12802;53.390;-2.328;2023-06-24T04:46:51;18.60;99.90
24682;DHT22;12802;53.390;-2.328;2023-06-24T04:49:18;18.70;99.90
24682;DHT22;12802;53.390;-2.328;2023-06-24T04:51:44;18.60;99.90
24682;DHT22;12802;53.390;-2.328;2023-06-24T04:54:09;18.60;99.90
24682;DHT22;12802;53.390;-2.328;2023-06-24T04:56:38;18.60;99.90
24682;DHT22;12802;53.390;-2.328;2023-06-24T05:03:56;18.50;99.90
24682;DHT22;12802;53.390;-2.328;2023-06-24T05:06:22;18.50;99.90
24682;DHT22;12802;53.390;-2.328;2023-06-24T05:08:48;18.50;99.90
24682;DHT22;12802;53.390;-2.328;2023-06-24T05:11:13;18.50;99.90
24682;DHT22;12802;53.390;-2.328;2023-06-24T05:13:40;18.50;99.90
24682;DHT22;12802;53.390;-2.328;2023-06-24T05:16:06;18.40;99.90
24682;DHT22;12802;53.390;-2.328;2023-06-24T05:18:32;18.40;99.90
24682;DHT22;12802;53.390;-2.328;2023-06-24T05:20:57;18.40;99.90
24682;DHT22;12802;53.390;-2.328;2023-06-24T05:23:23;18.40;99.90
24682;DHT22;12802;53.390;-2.328;2023-06-24T05:25:49;18.40;99.90
24682;DHT22;12802;53.390;-2.328;2023-06-24T05:28:15;18.40;99.90
24682;DHT22;12802;53.390;-2.328;2023-06-24T05:30:41;18.50;99.90
24682;DHT22;12802;53.390;-2.328;2023-06-24T05:33:06;18.50;99.90
24682;DHT22;12802;53.390;-2.328;2023-06-24T05:35:33;18.50;99.90
24682;DHT22;12802;53.390;-2.328;2023-06-24T05:37:59;18.50;99.90
24682;DHT22;12802;53.390;-2.328;2023-06-24T05:40:24;18.50;99.90
24682;DHT22;12802;53.390;-2.328;2023-06-24T05:42:50;18.60;99.90
24682;DHT22;12802;53.390;-2.328;2023-06-24T05:45:17;18.60;99.90
24682;DHT22;12802;53.390;-2.328;2023-06-24T05:47:43;18.60;99.90
24682;DHT22;12802;53.390;-2.328;2023-06-24T05:50:09;18.70;99.90
24682;DHT22;12802;53.390;-2.328;2023-06-24T05:52:34;18.70;99.90
24682;DHT22;12802;53.390;-2.328;2023-06-24T05:55:00;18.80;99.90
24682;DHT22;12802;53.390;-2.328;2023-06-24T05:57:26;18.90;99.90
24682;DHT22;12802;53.390;-2.328;2023-06-24T05:59:52;18.90;99.90
24682;DHT22;12802;53.390;-2.328;2023-06-24T06:02:17;19.00;99.90
24682;DHT22;12802;53.390;-2.328;2023-06-24T06:04:43;19.00;99.90
24682;DHT22;12802;53.390;-2.328;2023-06-24T06:07:09;19.00;99.90
24682;DHT22;12802;53.390;-2.328;2023-06-24T06:09:35;19.10;99.90
24682;DHT22;12802;53.390;-2.328;2023-06-24T06:12:00;19.10;99.90
24682;DHT22;12802;53.390;-2.328;2023-06-24T06:14:26;19.10;99.90
24682;DHT22;12802;53.390;-2.328;2023-06-24T06:16:55;19.20;99.90
24682;DHT22;12802;53.390;-2.328;2023-06-24T06:19:21;19.30;99.90
24682;DHT22;12802;53.390;-2.328;2023-06-24T06:21:48;19.30;99.90
24682;DHT22;12802;53.390;-2.328;2023-06-24T06:24:14;19.40;99.90
24682;DHT22;12802;53.390;-2.328;2023-06-24T06:26:44;19.40;99.90
24682;DHT22;12802;53.390;-2.328;2023-06-24T06:29:11;19.40;99.90
24682;DHT22;12802;53.390;-2.328;2023-06-24T06:31:37;19.40;99.90
24682;DHT22;12802;53.390;-2.328;2023-06-24T06:34:03;19.50;99.90
24682;DHT22;12802;53.390;-2.328;2023-06-24T06:36:29;19.50;99.90
24682;DHT22;12802;53.390;-2.328;2023-06-24T06:38:54;19.50;99.90
24682;DHT22;12802;53.390;-2.328;2023-06-24T06:41:20;19.50;99.90
24682;DHT22;12802;53.390;-2.328;2023-06-24T06:43:53;19.60;99.90
24682;DHT22;12802;53.390;-2.328;2023-06-24T06:46:19;19.60;99.90
24682;DHT22;12802;53.390;-2.328;2023-06-24T06:48:47;19.70;99.90
24682;DHT22;12802;53.390;-2.328;2023-06-24T06:51:13;19.70;99.90
24682;DHT22;12802;53.390;-2.328;2023-06-24T06:53:39;19.80;99.90
24682;DHT22;12802;53.390;-2.328;2023-06-24T06:56:05;19.80;99.90
24682;DHT22;12802;53.390;-2.328;2023-06-24T06:58:31;19.80;99.90
24682;DHT22;12802;53.390;-2.328;2023-06-24T07:00:57;19.80;99.90
24682;DHT22;12802;53.390;-2.328;2023-06-24T07:03:27;19.90;99.90
24682;DHT22;12802;53.390;-2.328;2023-06-24T07:05:54;19.90;99.90
24682;DHT22;12802;53.390;-2.328;2023-06-24T07:08:19;20.00;99.90
24682;DHT22;12802;53.390;-2.328;2023-06-24T07:10:45;20.10;99.90
24682;DHT22;12802;53.390;-2.328;2023-06-24T07:13:11;20.10;99.90
24682;DHT22;12802;53.390;-2.328;2023-06-24T07:15:37;20.10;99.90
24682;DHT22;12802;53.390;-2.328;2023-06-24T07:18:02;20.20;99.90
24682;DHT22;12802;53.390;-2.328;2023-06-24T07:20:28;20.20;99.90
24682;DHT22;12802;53.390;-2.328;2023-06-24T07:22:54;20.20;99.90
24682;DHT22;12802;53.390;-2.328;2023-06-24T07:25:20;20.20;99.90
24682;DHT22;12802;53.390;-2.328;2023-06-24T07:27:48;20.20;99.90
24682;DHT22;12802;53.390;-2.328;2023-06-24T07:30:14;20.30;99.90
24682;DHT22;12802;53.390;-2.328;2023-06-24T07:32:40;20.40;99.90
24682;DHT22;12802;53.390;-2.328;2023-06-24T07:35:06;20.50;99.90
24682;DHT22;12802;53.390;-2.328;2023-06-24T07:37:32;20.60;99.90
24682;DHT22;12802;53.390;-2.328;2023-06-24T07:39:57;20.60;99.90
24682;DHT22;12802;53.390;-2.328;2023-06-24T07:42:23;20.70;99.90
24682;DHT22;12802;53.390;-2.328;2023-06-24T07:44:49;20.70;99.90
24682;DHT22;12802;53.390;-2.328;2023-06-24T07:47:17;20.70;99.90
24682;DHT22;12802;53.390;-2.328;2023-06-24T07:49:44;20.60;99.90
24682;DHT22;12802;53.390;-2.328;2023-06-24T07:52:10;20.60;99.90
24682;DHT22;12802;53.390;-2.328;2023-06-24T07:54:35;20.70;99.90
24682;DHT22;12802;53.390;-2.328;2023-06-24T07:57:02;20.80;99.90
24682;DHT22;12802;53.390;-2.328;2023-06-24T07:59:28;21.10;99.90
24682;DHT22;12802;53.390;-2.328;2023-06-24T08:01:53;21.10;99.90
24682;DHT22;12802;53.390;-2.328;2023-06-24T08:04:19;21.20;99.90
24682;DHT22;12802;53.390;-2.328;2023-06-24T08:06:45;21.20;99.90
24682;DHT22;12802;53.390;-2.328;2023-06-24T08:09:11;21.20;99.90
24682;DHT22;12802;53.390;-2.328;2023-06-24T08:11:37;21.10;99.90
24682;DHT22;12802;53.390;-2.328;2023-06-24T08:14:02;21.10;99.90
24682;DHT22;12802;53.390;-2.328;2023-06-24T08:16:29;21.10;99.90
24682;DHT22;12802;53.390;-2.328;2023-06-24T08:18:55;21.10;99.90
24682;DHT22;12802;53.390;-2.328;2023-06-24T08:21:21;21.20;99.90
24682;DHT22;12802;53.390;-2.328;2023-06-24T08:23:46;21.20;99.90
24682;DHT22;12802;53.390;-2.328;2023-06-24T08:26:13;21.30;99.90
24682;DHT22;12802;53.390;-2.328;2023-06-24T08:28:39;21.40;99.90
24682;DHT22;12802;53.390;-2.328;2023-06-24T08:31:05;21.50;99.90
24682;DHT22;12802;53.390;-2.328;2023-06-24T08:33:30;21.50;99.90
24682;DHT22;12802;53.390;-2.328;2023-06-24T08:35:56;21.50;99.90
24682;DHT22;12802;53.390;-2.328;2023-06-24T08:38:22;21.60;99.90
24682;DHT22;12802;53.390;-2.328;2023-06-24T08:40:49;21.60;99.90
24682;DHT22;12802;53.390;-2.328;2023-06-24T08:43:15;21.70;99.90
24682;DHT22;12802;53.390;-2.328;2023-06-24T08:45:41;21.60;99.90
24682;DHT22;12802;53.390;-2.328;2023-06-24T08:48:07;21.50;99.90
24682;DHT22;12802;53.390;-2.328;2023-06-24T08:50:40;21.50;99.90
24682;DHT22;12802;53.390;-2.328;2023-06-24T08:53:09;21.40;99.90
24682;DHT22;12802;53.390;-2.328;2023-06-24T08:55:43;21.50;99.90
24682;DHT22;12802;53.390;-2.328;2023-06-24T08:58:09;21.60;99.90
24682;DHT22;12802;53.390;-2.328;2023-06-24T09:00:35;21.60;99.90
24682;DHT22;12802;53.390;-2.328;2023-06-24T09:03:01;21.70;99.90
24682;DHT22;12802;53.390;-2.328;2023-06-24T09:05:27;21.90;99.90
24682;DHT22;12802;53.390;-2.328;2023-06-24T09:07:53;22.10;99.90
24682;DHT22;12802;53.390;-2.328;2023-06-24T09:10:32;22.20;99.90
24682;DHT22;12802;53.390;-2.328;2023-06-24T09:12:58;22.20;99.90
24682;DHT22;12802;53.390;-2.328;2023-06-24T09:15:24;22.20;99.90
24682;DHT22;12802;53.390;-2.328;2023-06-24T09:17:50;22.20;99.90
24682;DHT22;12802;53.390;-2.328;2023-06-24T09:20:16;22.10;99.90
24682;DHT22;12802;53.390;-2.328;2023-06-24T09:22:47;22.10;99.90
24682;DHT22;12802;53.390;-2.328;2023-06-24T09:25:19;22.10;99.90
24682;DHT22;12802;53.390;-2.328;2023-06-24T09:27:48;22.20;99.90
24682;DHT22;12802;53.390;-2.328;2023-06-24T09:30:22;22.20;99.90
24682;DHT22;12802;53.390;-2.328;2023-06-24T09:32:49;22.20;99.90
24682;DHT22;12802;53.390;-2.328;2023-06-24T09:35:22;22.20;99.90
24682;DHT22;12802;53.390;-2.328;2023-06-24T09:40:16;22.10;99.90
24682;DHT22;12802;53.390;-2.328;2023-06-24T09:42:55;22.10;99.90
24682;DHT22;12802;53.390;-2.328;2023-06-24T09:45:26;22.10;99.90
24682;DHT22;12802;53.390;-2.328;2023-06-24T09:47:53;22.10;99.90
24682;DHT22;12802;53.390;-2.328;2023-06-24T09:50:20;22.20;99.90
24682;DHT22;12802;53.390;-2.328;2023-06-24T09:52:46;22.20;99.90
24682;DHT22;12802;53.390;-2.328;2023-06-24T09:55:17;22.30;99.90
24682;DHT22;12802;53.390;-2.328;2023-06-24T09:57:45;22.40;99.90
24682;DHT22;12802;53.390;-2.328;2023-06-24T10:00:16;22.50;99.90
24682;DHT22;12802;53.390;-2.328;2023-06-24T10:02:44;22.60;99.90
24682;DHT22;12802;53.390;-2.328;2023-06-24T10:05:11;22.60;99.90
24682;DHT22;12802;53.390;-2.328;2023-06-24T10:07:39;22.50;99.90
24682;DHT22;12802;53.390;-2.328;2023-06-24T10:10:06;22.60;99.90
24682;DHT22;12802;53.390;-2.328;2023-06-24T10:12:33;22.70;99.90
24682;DHT22;12802;53.390;-2.328;2023-06-24T10:15:00;22.70;99.90
24682;DHT22;12802;53.390;-2.328;2023-06-24T10:17:26;22.70;99.90
24682;DHT22;12802;53.390;-2.328;2023-06-24T10:19:52;22.70;99.90
24682;DHT22;12802;53.390;-2.328;2023-06-24T10:22:22;22.70;99.90
24682;DHT22;12802;53.390;-2.328;2023-06-24T10:24:48;22.80;99.90
24682;DHT22;12802;53.390;-2.328;2023-06-24T10:27:17;22.80;99.90
24682;DHT22;12802;53.390;-2.328;2023-06-24T10:29:48;22.80;99.90
24682;DHT22;12802;53.390;-2.328;2023-06-24T10:32:15;22.90;99.90
24682;DHT22;12802;53.390;-2.328;2023-06-24T10:34:42;22.90;99.90
24682;DHT22;12802;53.390;-2.328;2023-06-24T10:40:02;23.00;99.90
24682;DHT22;12802;53.390;-2.328;2023-06-24T10:42:40;23.10;99.90
24682;DHT22;12802;53.390;-2.328;2023-06-24T10:47:43;23.10;99.90
24682;DHT22;12802;53.390;-2.328;2023-06-24T10:50:11;23.20;99.90
24682;DHT22;12802;53.390;-2.328;2023-06-24T10:52:38;23.20;99.90
24682;DHT22;12802;53.390;-2.328;2023-06-24T10:55:05;23.30;99.90
24682;DHT22;12802;53.390;-2.328;2023-06-24T10:57:32;23.50;99.90
24682;DHT22;12802;53.390;-2.328;2023-06-24T10:59:59;23.60;99.90
24682;DHT22;12802;53.390;-2.328;2023-06-24T11:02:27;23.70;99.90
24682;DHT22;12802;53.390;-2.328;2023-06-24T11:04:55;23.80;99.90
24682;DHT22;12802;53.390;-2.328;2023-06-24T11:07:25;23.90;99.90
24682;DHT22;12802;53.390;-2.328;2023-06-24T11:12:19;23.70;99.90
24682;DHT22;12802;53.390;-2.328;2023-06-24T11:14:45;23.70;99.90
24682;DHT22;12802;53.390;-2.328;2023-06-24T11:17:11;23.70;99.90
24682;DHT22;12802;53.390;-2.328;2023-06-24T11:19:36;24.00;99.90
24682;DHT22;12802;53.390;-2.328;2023-06-24T11:22:06;24.10;99.90
24682;DHT22;12802;53.390;-2.328;2023-06-24T11:24:33;24.00;99.90
24682;DHT22;12802;53.390;-2.328;2023-06-24T11:26:58;24.10;99.90
24682;DHT22;12802;53.390;-2.328;2023-06-24T11:29:24;24.40;99.90
24682;DHT22;12802;53.390;-2.328;2023-06-24T11:31:53;24.50;99.90
24682;DHT22;12802;53.390;-2.328;2023-06-24T11:34:19;24.60;99.90
24682;DHT22;12802;53.390;-2.328;2023-06-24T11:36:48;25.10;99.90
24682;DHT22;12802;53.390;-2.328;2023-06-24T11:39:24;25.10;99.90
24682;DHT22;12802;53.390;-2.328;2023-06-24T11:41:51;25.00;99.90
24682;DHT22;12802;53.390;-2.328;2023-06-24T11:44:20;24.80;99.90
24682;DHT22;12802;53.390;-2.328;2023-06-24T11:46:47;24.60;99.90
24682;DHT22;12802;53.390;-2.328;2023-06-24T11:49:13;24.70;99.90
24682;DHT22;12802;53.390;-2.328;2023-06-24T11:51:46;25.10;99.90
24682;DHT22;12802;53.390;-2.328;2023-06-24T11:54:16;25.20;99.90
24682;DHT22;12802;53.390;-2.328;2023-06-24T11:56:44;25.10;99.90
24682;DHT22;12802;53.390;-2.328;2023-06-24T11:59:23;24.80;99.90
24682;DHT22;12802;53.390;-2.328;2023-06-24T12:01:55;24.60;99.90
24682;DHT22;12802;53.390;-2.328;2023-06-24T12:04:28;24.80;99.90
24682;DHT22;12802;53.390;-2.328;2023-06-24T12:06:54;25.10;99.90
24682;DHT22;12802;53.390;-2.328;2023-06-24T12:09:20;25.40;99.90
24682;DHT22;12802;53.390;-2.328;2023-06-24T12:11:45;25.50;99.90
24682;DHT22;12802;53.390;-2.328;2023-06-24T12:14:11;25.40;99.90
24682;DHT22;12802;53.390;-2.328;2023-06-24T12:16:38;25.10;99.90
24682;DHT22;12802;53.390;-2.328;2023-06-24T12:19:05;24.90;99.90
24682;DHT22;12802;53.390;-2.328;2023-06-24T12:21:31;24.70;99.90
24682;DHT22;12802;53.390;-2.328;2023-06-24T12:23:57;24.60;99.90
24682;DHT22;12802;53.390;-2.328;2023-06-24T12:26:23;24.60;99.90
24682;DHT22;12802;53.390;-2.328;2023-06-24T12:28:49;24.80;99.90
24682;DHT22;12802;53.390;-2.328;2023-06-24T12:31:15;25.00;99.90
24682;DHT22;12802;53.390;-2.328;2023-06-24T12:33:40;25.00;99.90
24682;DHT22;12802;53.390;-2.328;2023-06-24T12:36:06;24.90;99.90
24682;DHT22;12802;53.390;-2.328;2023-06-24T12:38:32;24.70;99.90
24682;DHT22;12802;53.390;-2.328;2023-06-24T12:40:58;25.00;99.90
24682;DHT22;12802;53.390;-2.328;2023-06-24T12:43:23;25.00;99.90
24682;DHT22;12802;53.390;-2.328;2023-06-24T12:45:49;25.00;99.90
24682;DHT22;12802;53.390;-2.328;2023-06-24T12:48:16;24.90;99.90
24682;DHT22;12802;53.390;-2.328;2023-06-24T12:50:42;25.20;99.90
24682;DHT22;12802;53.390;-2.328;2023-06-24T12:53:08;25.40;99.90
24682;DHT22;12802;53.390;-2.328;2023-06-24T12:55:39;25.20;99.90
24682;DHT22;12802;53.390;-2.328;2023-06-24T12:58:05;25.00;99.90
24682;DHT22;12802;53.390;-2.328;2023-06-24T13:00:31;24.90;99.90
24682;DHT22;12802;53.390;-2.328;2023-06-24T13:02:56;24.80;99.90
24682;DHT22;12802;53.390;-2.328;2023-06-24T13:05:22;25.00;99.90
24682;DHT22;12802;53.390;-2.328;2023-06-24T13:07:48;24.90;99.90
24682;DHT22;12802;53.390;-2.328;2023-06-24T13:10:13;24.70;99.90
24682;DHT22;12802;53.390;-2.328;2023-06-24T13:12:39;24.90;99.90
24682;DHT22;12802;53.390;-2.328;2023-06-24T13:15:06;25.10;99.90
24682;DHT22;12802;53.390;-2.328;2023-06-24T13:17:32;25.20;99.90
24682;DHT22;12802;53.390;-2.328;2023-06-24T13:19:58;25.10;99.90
24682;DHT22;12802;53.390;-2.328;2023-06-24T13:22:24;25.00;99.90
24682;DHT22;12802;53.390;-2.328;2023-06-24T13:24:50;25.00;99.90
24682;DHT22;12802;53.390;-2.328;2023-06-24T13:27:16;24.90;99.90
24682;DHT22;12802;53.390;-2.328;2023-06-24T13:29:42;25.20;99.90
24682;DHT22;12802;53.390;-2.328;2023-06-24T13:32:08;25.40;99.90
24682;DHT22;12802;53.390;-2.328;2023-06-24T13:34:34;25.70;99.90
24682;DHT22;12802;53.390;-2.328;2023-06-24T13:37:00;26.20;99.90
24682;DHT22;12802;53.390;-2.328;2023-06-24T13:39:26;26.40;99.90
24682;DHT22;12802;53.390;-2.328;2023-06-24T13:41:53;26.10;99.90
24682;DHT22;12802;53.390;-2.328;2023-06-24T13:44:19;25.80;99.90
24682;DHT22;12802;53.390;-2.328;2023-06-24T13:46:45;25.60;99.90
24682;DHT22;12802;53.390;-2.328;2023-06-24T13:49:11;25.40;99.90
24682;DHT22;12802;53.390;-2.328;2023-06-24T13:51:37;25.40;99.90
24682;DHT22;12802;53.390;-2.328;2023-06-24T13:54:03;25.20;99.90
24682;DHT22;12802;53.390;-2.328;2023-06-24T13:56:28;25.10;99.90
24682;DHT22;12802;53.390;-2.328;2023-06-24T13:58:55;25.10;99.90
24682;DHT22;12802;53.390;-2.328;2023-06-24T14:01:22;25.00;99.90
24682;DHT22;12802;53.390;-2.328;2023-06-24T14:03:48;25.00;99.90
24682;DHT22;12802;53.390;-2.328;2023-06-24T14:06:15;25.00;99.90
24682;DHT22;12802;53.390;-2.328;2023-06-24T14:08:41;24.90;99.90
24682;DHT22;12802;53.390;-2.328;2023-06-24T14:11:07;25.00;99.90
24682;DHT22;12802;53.390;-2.328;2023-06-24T14:13:33;25.20;99.90
24682;DHT22;12802;53.390;-2.328;2023-06-24T14:15:59;26.30;99.90
24682;DHT22;12802;53.390;-2.328;2023-06-24T14:18:25;26.80;99.90
24682;DHT22;12802;53.390;-2.328;2023-06-24T14:20:51;26.80;99.90
24682;DHT22;12802;53.390;-2.328;2023-06-24T14:23:17;26.40;99.90
24682;DHT22;12802;53.390;-2.328;2023-06-24T14:25:43;26.30;99.90
24682;DHT22;12802;53.390;-2.328;2023-06-24T14:28:09;26.70;99.90
24682;DHT22;12802;53.390;-2.328;2023-06-24T14:30:35;26.60;99.90
24682;DHT22;12802;53.390;-2.328;2023-06-24T14:33:01;26.40;99.90
24682;DHT22;12802;53.390;-2.328;2023-06-24T14:35:27;26.20;99.90
24682;DHT22;12802;53.390;-2.328;2023-06-24T14:37:52;26.80;99.90
24682;DHT22;12802;53.390;-2.328;2023-06-24T14:40:18;26.90;99.90
24682;DHT22;12802;53.390;-2.328;2023-06-24T14:42:44;26.40;99.90
24682;DHT22;12802;53.390;-2.328;2023-06-24T14:45:10;26.10;99.90
24682;DHT22;12802;53.390;-2.328;2023-06-24T14:47:36;26.20;99.90
24682;DHT22;12802;53.390;-2.328;2023-06-24T14:50:02;27.20;99.90
24682;DHT22;12802;53.390;-2.328;2023-06-24T14:52:29;28.30;99.90
24682;DHT22;12802;53.390;-2.328;2023-06-24T14:54:55;28.30;99.90
24682;DHT22;12802;53.390;-2.328;2023-06-24T14:57:21;28.60;99.90
24682;DHT22;12802;53.390;-2.328;2023-06-24T14:59:49;29.20;99.90
24682;DHT22;12802;53.390;-2.328;2023-06-24T15:02:15;29.80;99.90
24682;DHT22;12802;53.390;-2.328;2023-06-24T15:04:41;29.90;99.90
24682;DHT22;12802;53.390;-2.328;2023-06-24T15:07:07;30.00;99.90
24682;DHT22;12802;53.390;-2.328;2023-06-24T15:09:32;30.30;99.90
24682;DHT22;12802;53.390;-2.328;2023-06-24T15:12:00;30.40;99.90
24682;DHT22;12802;53.390;-2.328;2023-06-24T15:14:26;30.60;99.90
24682;DHT22;12802;53.390;-2.328;2023-06-24T15:16:51;30.60;99.90
24682;DHT22;12802;53.390;-2.328;2023-06-24T15:19:19;30.60;99.90
24682;DHT22;12802;53.390;-2.328;2023-06-24T15:21:45;30.70;99.90
24682;DHT22;12802;53.390;-2.328;2023-06-24T15:24:11;30.40;99.90
24682;DHT22;12802;53.390;-2.328;2023-06-24T15:26:37;29.80;99.90
24682;DHT22;12802;53.390;-2.328;2023-06-24T15:29:02;29.70;99.90
24682;DHT22;12802;53.390;-2.328;2023-06-24T15:31:28;29.90;99.90
24682;DHT22;12802;53.390;-2.328;2023-06-24T15:33:54;29.50;99.90
24682;DHT22;12802;53.390;-2.328;2023-06-24T15:36:21;29.10;99.90
24682;DHT22;12802;53.390;-2.328;2023-06-24T15:38:47;29.00;99.90
24682;DHT22;12802;53.390;-2.328;2023-06-24T15:41:13;28.50;99.90
24682;DHT22;12802;53.390;-2.328;2023-06-24T15:43:40;28.00;99.90